Time;durP1;ratioP1;P1;durP2;ratioP2;P2;SDS_P1;SDS_P2;PMS_P1;PMS_P2;Temp;Humidity;BMP_temperature;BMP_pressure;BME280_temperature;BME280_humidity;BME280_pressure;Samples;Min_cycle;Max_cycle;Signal;HPM_P1;HPM_P2
2023/08/10 00:01:20;;;;;;;;;;;;;;;21.44;54.90;102050.53;5065280;28;19913;-60
2023/08/10 00:03:46;;;;;;;;;;;;;;;21.44;54.69;102039.72;5065472;28;19916;-60
2023/08/10 00:06:12;;;;;;;;;;;;;;;21.44;54.51;102042.44;5096471;28;19921;-60
2023/08/10 00:08:37;;;;;;;;;;;;;;;21.44;54.64;102041.56;5065235;28;20284;-60
2023/08/10 00:11:02;;;;;;;;;;;;;;;21.44;54.75;102044.28;5064578;28;20379;-60
2023/08/10 00:13:27;;;;;;;;;;;;;;;21.43;54.76;102039.88;5065119;28;19991;-58
2023/08/10 00:15:53;;;;;;;;;;;;;;;21.42;54.79;102049.88;5064538;28;19917;-60
2023/08/10 00:18:19;;;;;;;;;;;;;;;21.42;54.72;102049.03;5067233;28;19920;-59
2023/08/10 00:20:44;;;;;;;;;;;;;;;21.42;54.63;102054.44;5064568;28;19987;-59
2023/08/10 00:23:10;;;;;;;;;;;;;;;21.43;54.45;102053.41;5065929;28;19952;-60
2023/08/10 00:25:35;;;;;;;;;;;;;;;21.41;54.63;102053.59;5064381;28;19923;-59
2023/08/10 00:28:00;;;;;;;;;;;;;;;21.41;54.47;102056.28;5064080;28;19912;-60
2023/08/10 00:30:26;;;;;;;;;;;;;;;21.40;54.71;102049.16;5064413;28;19956;-60
2023/08/10 00:32:51;;;;;;;;;;;;;;;21.41;54.72;102050.03;5064768;28;19912;-60
2023/08/10 00:35:16;;;;;;;;;;;;;;;21.39;54.68;102050.16;5064441;28;19917;-60
2023/08/10 00:37:42;;;;;;;;;;;;;;;21.40;54.73;102042.91;5064588;28;19916;-60
2023/08/10 00:40:12;;;;;;;;;;;;;;;21.39;54.34;102042.06;5096921;28;20403;-60
2023/08/10 00:42:37;;;;;;;;;;;;;;;21.39;54.59;102043.91;5063087;28;19924;-58
2023/08/10 00:45:02;;;;;;;;;;;;;;;21.39;54.77;102042.06;5065267;28;19995;-59
2023/08/10 00:47:28;;;;;;;;;;;;;;;21.38;54.56;102047.63;5064639;28;20483;-59
2023/08/10 00:49:53;;;;;;;;;;;;;;;21.37;54.70;102049.50;5096575;28;19913;-60
2023/08/10 00:52:18;;;;;;;;;;;;;;;21.36;54.75;102039.66;5064058;28;19913;-59
2023/08/10 00:54:43;;;;;;;;;;;;;;;21.37;54.55;102045.94;5064249;28;19917;-59
2023/08/10 00:57:08;;;;;;;;;;;;;;;21.36;54.63;102045.06;5064040;28;19920;-60
2023/08/10 00:59:34;;;;;;;;;;;;;;;21.35;54.57;102048.78;5064481;28;19917;-60
2023/08/10 01:01:59;;;;;;;;;;;;;;;21.35;54.69;102056.91;5096305;28;19934;-60
2023/08/10 01:04:24;;;;;;;;;;;;;;;21.35;54.50;102046.09;5063770;28;19912;-60
2023/08/10 01:07:13;;;;;;;;;;;;;;;21.35;54.67;102054.19;5064099;28;20577;-60
2023/08/10 01:10:05;;;;;;;;;;;;;;;21.34;54.69;102060.63;5061175;28;19944;-58
2023/08/10 01:12:33;;;;;;;;;;;;;;;21.34;54.39;102063.31;5064058;28;19947;-60
2023/08/10 01:15:03;;;;;;;;;;;;;;;21.34;54.48;102060.63;5096299;28;19916;-57
2023/08/10 01:17:28;;;;;;;;;;;;;;;21.34;54.57;102065.19;5063860;28;20007;-60
2023/08/10 01:19:54;;;;;;;;;;;;;;;21.33;54.52;102058.09;5095868;28;19920;-58
2023/08/10 01:22:31;;;;;;;;;;;;;;;21.33;54.46;102050.81;5063754;28;19927;-59
2023/08/10 01:25:01;;;;;;;;;;;;;;;21.33;54.35;102036.44;5095144;28;19920;-58
2023/08/10 01:27:27;;;;;;;;;;;;;;;21.31;54.44;102047.38;5074852;28;19920;-60
2023/08/10 01:29:52;;;;;;;;;;;;;;;21.32;54.65;102059.06;5096172;28;19935;-59
2023/08/10 01:32:17;;;;;;;;;;;;;;;21.31;54.72;102074.41;5063754;28;20421;-59
2023/08/10 01:34:42;;;;;;;;;;;;;;;21.30;54.54;102064.63;5063567;28;19984;-59
2023/08/10 01:37:08;;;;;;;;;;;;;;;21.30;54.63;102069.19;5063122;28;19940;-59
2023/08/10 01:39:35;;;;;;;;;;;;;;;21.30;54.74;102066.47;5061992;28;20684;-59
2023/08/10 01:42:00;;;;;;;;;;;;;;;21.28;54.54;102066.63;5064079;28;19912;-57
2023/08/10 01:44:25;;;;;;;;;;;;;;;21.28;54.41;102058.53;5062828;28;20020;-60
2023/08/10 01:46:51;;;;;;;;;;;;;;;21.29;54.40;102064.78;5062890;28;19917;-60
2023/08/10 01:49:16;;;;;;;;;;;;;;;21.29;54.34;102065.63;5096297;28;19916;-60
2023/08/10 01:51:41;;;;;;;;;;;;;;;21.28;54.60;102068.47;5095586;28;19924;-59
2023/08/10 01:54:06;;;;;;;;;;;;;;;21.28;54.55;102063.94;5062699;28;19917;-59
2023/08/10 01:56:32;;;;;;;;;;;;;;;21.28;54.64;102068.47;5063008;28;20442;-60
2023/08/10 01:58:57;;;;;;;;;;;;;;;21.27;54.42;102074.88;5063794;28;19913;-61
2023/08/10 02:01:22;;;;;;;;;;;;;;;21.26;54.64;102065.94;5062089;28;19912;-59
2023/08/10 02:03:47;;;;;;;;;;;;;;;21.27;54.35;102070.31;5064067;28;19917;-60
2023/08/10 02:06:13;;;;;;;;;;;;;;;21.25;54.62;102069.66;5062625;28;19924;-60
2023/08/10 02:08:38;;;;;;;;;;;;;;;21.26;54.58;102074.03;5062466;28;20511;-60
2023/08/10 02:11:03;;;;;;;;;;;;;;;21.26;54.62;102075.91;5062893;28;19916;-60
2023/08/10 02:13:28;;;;;;;;;;;;;;;21.24;54.69;102073.38;5062311;28;20385;-60
2023/08/10 02:15:54;;;;;;;;;;;;;;;21.25;54.40;102079.63;5063230;28;19952;-60
2023/08/10 02:18:19;;;;;;;;;;;;;;;21.23;54.45;102075.19;5063663;28;19913;-60
2023/08/10 02:20:44;;;;;;;;;;;;;;;21.24;54.36;102081.47;5063003;28;19921;-58
2023/08/10 02:23:09;;;;;;;;;;;;;;;21.24;54.53;102076.06;5063686;28;19927;-59
2023/08/10 02:25:34;;;;;;;;;;;;;;;21.24;54.49;102084.19;5063064;28;19917;-57
2023/08/10 02:28:00;;;;;;;;;;;;;;;21.23;54.43;102071.63;5061502;28;19913;-60
2023/08/10 02:30:25;;;;;;;;;;;;;;;21.23;54.52;102079.75;5063366;28;19952;-59
2023/08/10 02:32:50;;;;;;;;;;;;;;;21.22;54.69;102078.91;5063527;28;19920;-60
2023/08/10 02:35:15;;;;;;;;;;;;;;;21.21;54.28;102074.50;5062753;28;19948;-59
2023/08/10 02:37:41;;;;;;;;;;;;;;;21.22;54.25;102078.06;5062889;28;19976;-54
2023/08/10 02:40:12;;;;;;;;;;;;;;;21.21;54.37;102082.63;5063362;28;20389;-59
2023/08/10 02:42:38;;;;;;;;;;;;;;;21.20;54.36;102072.81;5062859;28;19912;-60
2023/08/10 02:45:04;;;;;;;;;;;;;;;21.20;54.39;102080.94;5063030;28;20139;-59
2023/08/10 02:47:29;;;;;;;;;;;;;;;21.20;54.37;102071.97;5064707;28;19913;-59
2023/08/10 02:49:54;;;;;;;;;;;;;;;21.20;54.28;102080.09;5063023;28;19920;-59
2023/08/10 02:52:19;;;;;;;;;;;;;;;21.19;54.46;102076.50;5097447;28;19912;-60
2023/08/10 02:54:45;;;;;;;;;;;;;;;21.20;54.30;102085.50;5065831;28;19912;-60
2023/08/10 02:57:11;;;;;;;;;;;;;;;21.19;54.34;102075.66;5065636;28;20003;-60
2023/08/10 02:59:36;;;;;;;;;;;;;;;21.18;54.47;102085.63;5066830;28;19913;-60
2023/08/10 03:02:02;;;;;;;;;;;;;;;21.19;54.28;102091.88;5098716;28;19924;-60
2023/08/10 03:04:28;;;;;;;;;;;;;;;21.18;54.43;102092.91;5066500;28;19923;-60
2023/08/10 03:06:53;;;;;;;;;;;;;;;21.17;54.37;102088.50;5065506;28;19913;-60
2023/08/10 03:09:18;;;;;;;;;;;;;;;21.18;54.29;102095.59;5066729;28;19913;-59
2023/08/10 03:11:43;;;;;;;;;;;;;;;21.17;54.43;102088.50;5065756;28;19917;-60
2023/08/10 03:14:08;;;;;;;;;;;;;;;21.16;54.49;102090.38;5098963;28;19939;-58
2023/08/10 03:16:34;;;;;;;;;;;;;;;21.16;54.50;102087.66;5065658;28;20388;-59
2023/08/10 03:19:00;;;;;;;;;;;;;;;21.16;54.20;102089.53;5066559;28;19962;-59
2023/08/10 03:21:26;;;;;;;;;;;;;;;21.16;54.45;102090.38;5065945;28;19927;-60
2023/08/10 03:23:51;;;;;;;;;;;;;;;21.15;54.25;102093.19;5066215;28;20557;-60
2023/08/10 03:26:16;;;;;;;;;;;;;;;21.14;54.43;102084.25;5064858;28;19916;-60
2023/08/10 03:28:41;;;;;;;;;;;;;;;21.14;54.52;102086.94;5066332;28;19951;-56
2023/08/10 03:31:07;;;;;;;;;;;;;;;21.14;54.32;102086.94;5065898;28;19920;-60
2023/08/10 03:33:32;;;;;;;;;;;;;;;21.12;54.16;102086.28;5064184;28;19912;-60
2023/08/10 03:35:57;;;;;;;;;;;;;;;21.13;54.59;102085.25;5064848;28;19938;-60
2023/08/10 03:38:22;;;;;;;;;;;;;;;21.12;54.25;102077.31;5066263;28;19913;-59
2023/08/10 03:40:47;;;;;;;;;;;;;;;21.12;54.38;102083.56;5065681;28;19979;-60
2023/08/10 03:43:13;;;;;;;;;;;;;;;21.11;54.52;102075.59;5066312;28;20481;-60
2023/08/10 03:45:38;;;;;;;;;;;;;;;21.11;54.55;102084.56;5097177;28;19925;-59
2023/08/10 03:48:03;;;;;;;;;;;;;;;21.11;54.40;102075.59;5065716;28;19944;-60
2023/08/10 03:50:29;;;;;;;;;;;;;;;21.10;54.48;102071.19;5065486;28;19931;-59
2023/08/10 03:52:54;;;;;;;;;;;;;;;21.09;54.20;102074.91;5063103;28;19927;-60
2023/08/10 03:55:20;;;;;;;;;;;;;;;21.08;54.25;102075.91;5065544;28;19912;-60
2023/08/10 03:57:45;;;;;;;;;;;;;;;21.09;54.43;102074.91;5063809;28;19917;-60
2023/08/10 04:00:11;;;;;;;;;;;;;;;21.10;54.22;102079.31;5065337;28;19919;-59
2023/08/10 04:02:37;;;;;;;;;;;;;;;21.08;54.23;102082.16;5064849;28;19984;-60
2023/08/10 04:05:10;;;;;;;;;;;;;;;21.08;54.29;102082.16;5064902;28;20433;-60
2023/08/10 04:07:38;;;;;;;;;;;;;;;21.09;54.49;102091.13;5065187;28;19931;-59
2023/08/10 04:10:05;;;;;;;;;;;;;;;21.06;54.55;102078.75;5063779;28;19924;-59
2023/08/10 04:12:30;;;;;;;;;;;;;;;21.08;54.56;102081.31;5060751;28;19913;-58
2023/08/10 04:14:56;;;;;;;;;;;;;;;21.07;54.76;102080.47;5063505;28;19924;-59
2023/08/10 04:17:21;;;;;;;;;;;;;;;21.07;54.93;102087.72;5061342;28;19913;-60
2023/08/10 04:19:46;;;;;;;;;;;;;;;21.07;54.84;102087.72;5064576;28;19923;-59
2023/08/10 04:22:11;;;;;;;;;;;;;;;21.08;54.83;102086.72;5064090;28;20016;-60
2023/08/10 04:24:36;;;;;;;;;;;;;;;21.09;54.98;102080.31;5064764;28;20043;-60
2023/08/10 04:27:02;;;;;;;;;;;;;;;21.08;55.24;102084.03;5063948;28;19913;-59
2023/08/10 04:29:27;;;;;;;;;;;;;;;21.09;55.23;102083.00;5065013;28;19935;-56
2023/08/10 04:31:53;;;;;;;;;;;;;;;21.09;55.00;102085.72;5063971;28;19913;-60
2023/08/10 04:34:18;;;;;;;;;;;;;;;21.07;55.05;102085.88;5064587;28;19968;-60
2023/08/10 04:36:43;;;;;;;;;;;;;;;21.08;55.19;102087.59;5062874;28;19921;-59
2023/08/10 04:39:08;;;;;;;;;;;;;;;21.09;55.39;102083.88;5064939;28;19936;-59
2023/08/10 04:41:34;;;;;;;;;;;;;;;21.09;55.27;102083.00;5063993;28;20310;-59
2023/08/10 04:43:59;;;;;;;;;;;;;;;21.09;55.62;102091.13;5064222;28;20259;-60
2023/08/10 04:46:24;;;;;;;;;;;;;;;21.09;55.30;102083.88;5069190;28;19924;-59
2023/08/10 04:48:50;;;;;;;;;;;;;;;21.10;55.32;102087.41;5064700;28;19934;-60
2023/08/10 04:51:15;;;;;;;;;;;;;;;21.10;55.74;102087.41;5064122;28;19976;-59
2023/08/10 04:53:41;;;;;;;;;;;;;;;21.10;55.44;102082.00;5064477;28;19917;-60
2023/08/10 04:56:06;;;;;;;;;;;;;;;21.10;55.50;102084.72;5063982;28;19917;-60
2023/08/10 04:58:32;;;;;;;;;;;;;;;21.09;55.56;102083.88;5064491;28;20392;-59
2023/08/10 05:00:57;;;;;;;;;;;;;;;21.10;55.58;102085.56;5064368;28;20382;-60
2023/08/10 05:03:22;;;;;;;;;;;;;;;21.11;56.02;102091.81;5064167;28;20371;-59
2023/08/10 05:05:47;;;;;;;;;;;;;;;21.10;55.96;102088.25;5057423;28;20388;-60
2023/08/10 05:08:12;;;;;;;;;;;;;;;21.10;55.91;102099.06;5058641;28;20421;-59
2023/08/10 05:10:38;;;;;;;;;;;;;;;21.11;56.06;102099.94;5063361;28;20273;-60
2023/08/10 05:13:04;;;;;;;;;;;;;;;21.11;55.89;102097.22;5056757;28;20534;-59
2023/08/10 05:15:29;;;;;;;;;;;;;;;21.11;55.83;102099.94;5063212;28;19924;-60
2023/08/10 05:17:55;;;;;;;;;;;;;;;21.11;55.99;102091.81;5063701;28;19950;-57
2023/08/10 05:20:20;;;;;;;;;;;;;;;21.11;55.94;102098.09;5063688;28;19931;-60
2023/08/10 05:22:45;;;;;;;;;;;;;;;21.10;55.68;102095.53;5065900;28;19920;-60
2023/08/10 05:25:11;;;;;;;;;;;;;;;21.10;55.50;102090.97;5063406;28;19917;-60
2023/08/10 05:27:37;;;;;;;;;;;;;;;21.10;55.81;102100.94;5061639;28;19970;-59
2023/08/10 05:30:03;;;;;;;;;;;;;;;21.10;55.52;102101.78;5064065;28;20000;-56
2023/08/10 05:32:29;;;;;;;;;;;;;;;21.09;55.71;102105.50;5063665;28;19982;-59
2023/08/10 05:34:54;;;;;;;;;;;;;;;21.09;55.52;102108.19;5063505;28;19921;-59
2023/08/10 05:37:19;;;;;;;;;;;;;;;21.10;55.70;102107.19;5064177;28;19927;-59
2023/08/10 05:39:44;;;;;;;;;;;;;;;21.10;55.74;102109.03;5063026;28;20507;-59
2023/08/10 05:42:09;;;;;;;;;;;;;;;21.09;55.44;102110.06;5063246;28;19924;-60
2023/08/10 05:44:35;;;;;;;;;;;;;;;21.10;55.30;102111.75;5063627;28;19913;-60
2023/08/10 05:47:00;;;;;;;;;;;;;;;21.09;55.58;102105.50;5065350;28;19916;-60
2023/08/10 05:49:25;;;;;;;;;;;;;;;21.10;55.65;102109.03;5063660;28;19939;-60
2023/08/10 05:51:50;;;;;;;;;;;;;;;21.09;55.49;102110.06;5063400;28;19913;-60
2023/08/10 05:54:15;;;;;;;;;;;;;;;21.09;55.42;102116.31;5063935;28;19932;-59
2023/08/10 05:56:41;;;;;;;;;;;;;;;21.10;55.34;102122.56;5062866;28;19912;-60
2023/08/10 05:59:06;;;;;;;;;;;;;;;21.10;55.56;102119.88;5095629;28;19971;-59
2023/08/10 06:01:31;;;;;;;;;;;;;;;21.09;55.43;102119.03;5063313;28;19920;-59
2023/08/10 06:03:56;;;;;;;;;;;;;;;21.09;55.21;102127.13;5064048;28;19924;-60
2023/08/10 06:06:22;;;;;;;;;;;;;;;21.10;55.42;102125.28;5062401;28;19921;-56
2023/08/10 06:08:48;;;;;;;;;;;;;;;21.09;55.18;102124.44;5062659;28;19928;-60
2023/08/10 06:11:13;;;;;;;;;;;;;;;21.10;55.07;102128.81;5062599;28;19935;-60
2023/08/10 06:13:41;;;;;;;;;;;;;;;21.10;55.49;102127.97;5063768;28;19909;-60
2023/08/10 06:16:06;;;;;;;;;;;;;;;21.10;55.50;102125.28;5063429;28;19999;-60
2023/08/10 06:18:32;;;;;;;;;;;;;;;21.10;55.20;102119.88;5061483;28;19931;-59
2023/08/10 06:20:57;;;;;;;;;;;;;;;21.10;55.30;102128.81;5062958;28;19921;-59
2023/08/10 06:23:22;;;;;;;;;;;;;;;21.11;55.06;102126.97;5063746;28;19917;-61
2023/08/10 06:25:48;;;;;;;;;;;;;;;21.10;55.10;102126.13;5064195;28;19923;-61
2023/08/10 06:28:14;;;;;;;;;;;;;;;21.11;55.06;102127.84;5066840;28;19912;-61
2023/08/10 06:30:40;;;;;;;;;;;;;;;21.11;55.21;102127.84;5066936;28;19927;-57
2023/08/10 06:33:07;;;;;;;;;;;;;;;21.12;55.22;102126.00;5067027;28;19924;-60
2023/08/10 06:35:35;;;;;;;;;;;;;;;21.12;55.38;102124.13;5066730;28;19916;-60
2023/08/10 06:38:00;;;;;;;;;;;;;;;21.13;55.20;102124.97;5065649;28;19912;-60
2023/08/10 06:40:25;;;;;;;;;;;;;;;21.13;55.14;102122.28;5067021;28;19919;-60
2023/08/10 06:42:51;;;;;;;;;;;;;;;21.13;54.90;102123.13;5066065;28;19913;-60
2023/08/10 06:45:16;;;;;;;;;;;;;;;21.13;54.91;102127.69;5066994;28;19924;-61
2023/08/10 06:47:41;;;;;;;;;;;;;;;21.13;54.90;102131.22;5065704;28;19917;-60
2023/08/10 06:50:08;;;;;;;;;;;;;;;21.13;55.12;102128.53;5066567;28;20332;-60
2023/08/10 06:52:33;;;;;;;;;;;;;;;21.14;55.05;102129.38;5066799;28;19917;-61
2023/08/10 06:54:58;;;;;;;;;;;;;;;21.14;54.78;102142.91;5066851;28;19920;-55
2023/08/10 06:57:24;;;;;;;;;;;;;;;21.14;55.02;102137.50;5065165;28;19916;-59
2023/08/10 06:59:49;;;;;;;;;;;;;;;21.14;54.77;102137.50;5065994;28;19917;-58
2023/08/10 07:02:14;;;;;;;;;;;;;;;21.14;54.69;102132.06;5066353;28;19984;-60
2023/08/10 07:04:40;;;;;;;;;;;;;;;21.14;54.67;102134.78;5066109;28;19923;-60
2023/08/10 07:07:05;;;;;;;;;;;;;;;21.15;54.90;102139.19;5067542;28;20012;-60
2023/08/10 07:09:30;;;;;;;;;;;;;;;21.14;54.79;102138.34;5066115;28;19932;-61
2023/08/10 07:11:56;;;;;;;;;;;;;;;21.14;54.75;102132.91;5065625;28;19924;-61
2023/08/10 07:14:21;;;;;;;;;;;;;;;21.15;54.83;102139.19;5066659;28;19913;-60
2023/08/10 07:16:46;;;;;;;;;;;;;;;21.15;54.59;102136.47;5066100;28;19913;-60
2023/08/10 07:19:11;;;;;;;;;;;;;;;21.15;54.81;102131.06;5065824;28;19917;-60
2023/08/10 07:21:37;;;;;;;;;;;;;;;21.16;54.78;102143.59;5065993;28;19921;-60
2023/08/10 07:24:05;;;;;;;;;;;;;;;21.15;54.72;102142.75;5066435;28;19920;-61
2023/08/10 07:26:30;;;;;;;;;;;;;;;21.16;54.58;102146.31;5065540;28;19969;-60
2023/08/10 07:28:55;;;;;;;;;;;;;;;21.16;54.55;102144.47;5065946;28;19935;-58
2023/08/10 07:31:21;;;;;;;;;;;;;;;21.16;54.71;102144.47;5065822;28;19916;-60
2023/08/10 07:33:46;;;;;;;;;;;;;;;21.17;54.69;102150.72;5066295;28;19912;-59
2023/08/10 07:36:12;;;;;;;;;;;;;;;21.18;54.53;102149.69;5065202;28;19913;-60
2023/08/10 07:38:37;;;;;;;;;;;;;;;21.17;54.72;102140.75;5065108;28;19928;-60
2023/08/10 07:41:02;;;;;;;;;;;;;;;21.18;54.42;102144.28;5065744;28;20027;-60
2023/08/10 07:43:28;;;;;;;;;;;;;;;21.18;54.55;102136.19;5065307;28;19913;-60
2023/08/10 07:45:53;;;;;;;;;;;;;;;21.19;54.66;102141.41;5065616;28;19944;-60
2023/08/10 07:48:18;;;;;;;;;;;;;;;21.19;54.61;102136.00;5065362;28;19993;-61
2023/08/10 07:50:43;;;;;;;;;;;;;;;21.19;54.36;102133.31;5065539;28;19920;-60
2023/08/10 07:53:08;;;;;;;;;;;;;;;21.19;54.46;102144.13;5065825;28;19913;-60
2023/08/10 07:55:34;;;;;;;;;;;;;;;21.20;54.53;102140.44;5065498;28;19968;-60
2023/08/10 07:57:59;;;;;;;;;;;;;;;21.21;54.62;102141.28;5064804;28;20385;-60
2023/08/10 08:00:25;;;;;;;;;;;;;;;21.22;54.52;102129.47;5065521;28;19917;-61
2023/08/10 08:02:50;;;;;;;;;;;;;;;21.22;54.39;102134.88;5065331;28;19919;-60
2023/08/10 08:05:16;;;;;;;;;;;;;;;20.84;54.24;102066.53;5064836;28;19976;-60
2023/08/10 08:07:42;;;;;;;;;;;;;;;21.23;54.54;102131.16;5065400;28;19941;-60
2023/08/10 08:10:07;;;;;;;;;;;;;;;21.25;54.46;102129.16;5097339;28;19916;-60
2023/08/10 08:12:32;;;;;;;;;;;;;;;21.25;54.20;102123.75;5065108;28;19913;-57
2023/08/10 08:14:57;;;;;;;;;;;;;;;21.26;54.14;102125.44;5065290;28;19935;-60
2023/08/10 08:17:23;;;;;;;;;;;;;;;21.26;54.18;102119.19;5063603;28;20511;-61
2023/08/10 08:19:55;;;;;;;;;;;;;;;21.26;54.35;102130.84;5065561;28;19913;-60
2023/08/10 08:22:20;;;;;;;;;;;;;;;21.27;54.12;102134.41;5064488;28;19944;-61
2023/08/10 08:24:49;;;;;;;;;;;;;;;21.27;54.13;102126.28;5065273;28;19917;-61
2023/08/10 08:27:14;;;;;;;;;;;;;;;21.27;54.51;102147.94;5064093;28;20314;-60
2023/08/10 08:29:40;;;;;;;;;;;;;;;21.27;54.09;102142.50;5065079;28;19937;-57
2023/08/10 08:32:05;;;;;;;;;;;;;;;21.26;54.46;102149.78;5064715;28;19992;-61
2023/08/10 08:34:35;;;;;;;;;;;;;;;21.26;54.29;102146.22;5064387;28;19913;-59
2023/08/10 08:37:00;;;;;;;;;;;;;;;21.27;54.37;102143.34;5064439;28;20370;-60
2023/08/10 08:39:25;;;;;;;;;;;;;;;21.26;54.36;102141.66;5065074;28;19935;-61
2023/08/10 08:41:50;;;;;;;;;;;;;;;21.27;54.15;102146.06;5064265;28;19917;-60
2023/08/10 08:44:16;;;;;;;;;;;;;;;21.27;54.34;102140.66;5097304;28;19981;-60
2023/08/10 08:46:41;;;;;;;;;;;;;;;21.27;54.36;102131.69;5064240;28;19992;-60
2023/08/10 08:49:06;;;;;;;;;;;;;;;21.27;54.35;102129.84;5095990;28;19919;-60
2023/08/10 08:51:32;;;;;;;;;;;;;;;21.28;54.43;102136.09;5064063;28;19927;-60
2023/08/10 08:54:00;;;;;;;;;;;;;;;21.28;54.25;102136.97;5097434;28;19913;-60
2023/08/10 08:56:25;;;;;;;;;;;;;;;21.29;54.61;102137.81;5065651;28;19932;-59
2023/08/10 08:58:51;;;;;;;;;;;;;;;21.29;54.54;102133.25;5064473;28;19913;-60
2023/08/10 09:01:16;;;;;;;;;;;;;;;21.29;54.61;102135.97;5062806;28;19912;-60
2023/08/10 09:03:41;;;;;;;;;;;;;;;21.31;54.29;102128.53;5064897;28;19912;-60
2023/08/10 09:06:07;;;;;;;;;;;;;;;21.31;54.29;102122.28;5063643;28;20420;-60
2023/08/10 09:08:34;;;;;;;;;;;;;;;21.32;54.31;102129.41;5064109;28;19921;-59
2023/08/10 09:11:00;;;;;;;;;;;;;;;20.95;54.51;102062.78;5062682;28;19913;-59
2023/08/10 09:13:25;;;;;;;;;;;;;;;21.33;54.52;102121.16;5064145;28;19920;-60
2023/08/10 09:16:04;;;;;;;;;;;;;;;21.34;54.69;102122.84;5063676;28;19917;-60
2023/08/10 09:18:33;;;;;;;;;;;;;;;21.35;54.46;102118.28;5063749;28;19917;-60
2023/08/10 09:21:16;;;;;;;;;;;;;;;21.35;54.50;102118.28;5063801;28;20003;-60
2023/08/10 09:23:42;;;;;;;;;;;;;;;21.36;54.50;102120.81;5063896;28;19971;-60
2023/08/10 09:26:08;;;;;;;;;;;;;;;21.36;54.63;102123.53;5064021;28;19921;-60
2023/08/10 09:28:35;;;;;;;;;;;;;;;21.37;54.41;102121.69;5063625;28;20317;-60
2023/08/10 09:31:00;;;;;;;;;;;;;;;21.37;54.50;102116.28;5063945;28;20011;-60
2023/08/10 09:33:31;;;;;;;;;;;;;;;21.38;54.55;102120.69;5064176;28;19913;-60
2023/08/10 09:36:00;;;;;;;;;;;;;;;21.39;54.71;102123.22;5063416;28;19920;-61
2023/08/10 09:38:25;;;;;;;;;;;;;;;21.38;54.35;102121.53;5063698;28;19924;-60
2023/08/10 09:40:56;;;;;;;;;;;;;;;21.39;54.74;102123.22;5063748;28;19916;-60
2023/08/10 09:43:23;;;;;;;;;;;;;;;21.41;54.29;102125.78;5096026;28;19912;-60
2023/08/10 09:46:01;;;;;;;;;;;;;;;21.41;54.55;102123.09;5062611;28;20011;-60
2023/08/10 09:48:27;;;;;;;;;;;;;;;21.42;54.41;102122.06;5065459;28;19917;-59
2023/08/10 09:50:54;;;;;;;;;;;;;;;21.42;54.61;102122.06;5095852;28;19916;-61
2023/08/10 09:53:19;;;;;;;;;;;;;;;21.41;54.53;102118.53;5094197;28;19913;-61
2023/08/10 09:55:44;;;;;;;;;;;;;;;21.42;54.64;102122.91;5062928;28;19928;-60
2023/08/10 09:58:09;;;;;;;;;;;;;;;21.42;54.41;102124.78;5062467;28;19912;-59
2023/08/10 10:00:38;;;;;;;;;;;;;;;21.43;54.44;102123.75;5064598;28;19917;-61
2023/08/10 10:03:03;;;;;;;;;;;;;;;21.44;54.54;102131.72;5066177;28;19916;-60
2023/08/10 10:05:28;;;;;;;;;;;;;;;21.45;54.36;102129.84;5065428;28;19993;-60
2023/08/10 10:07:53;;;;;;;;;;;;;;;21.45;54.44;102128.03;5066392;28;19917;-60
2023/08/10 10:10:19;;;;;;;;;;;;;;;21.46;54.63;102123.47;5100054;28;19913;-58
2023/08/10 10:12:45;;;;;;;;;;;;;;;21.45;54.58;102119.91;5067329;28;19935;-60
2023/08/10 10:15:11;;;;;;;;;;;;;;;21.46;54.45;102112.63;5067291;28;19916;-60
2023/08/10 10:17:37;;;;;;;;;;;;;;;21.46;54.70;102110.78;5067562;28;19913;-57
2023/08/10 10:20:04;;;;;;;;;;;;;;;21.47;54.54;102114.31;5067288;28;20039;-56
2023/08/10 10:22:29;;;;;;;;;;;;;;;21.48;54.67;102113.31;5068488;28;19951;-60
2023/08/10 10:24:56;;;;;;;;;;;;;;;21.48;54.76;102110.59;5066085;28;19916;-60
2023/08/10 10:27:21;;;;;;;;;;;;;;;21.49;54.56;102115.00;5064456;28;19948;-61
2023/08/10 10:29:51;;;;;;;;;;;;;;;21.51;54.50;102117.56;5067478;28;19955;-60
2023/08/10 10:32:18;;;;;;;;;;;;;;;21.52;54.67;102111.16;5067234;28;19924;-60
2023/08/10 10:34:44;;;;;;;;;;;;;;;21.52;54.49;102114.69;5066621;28;19916;-60
2023/08/10 10:37:13;;;;;;;;;;;;;;;21.53;54.66;102107.44;5067188;28;19924;-61
2023/08/10 10:39:38;;;;;;;;;;;;;;;21.53;54.57;102105.56;5067249;28;19948;-60
2023/08/10 10:42:04;;;;;;;;;;;;;;;21.55;54.48;102110.84;5066479;28;19924;-60
2023/08/10 10:44:47;;;;;;;;;;;;;;;21.55;54.46;102113.56;5066891;28;19928;-57
2023/08/10 10:47:16;;;;;;;;;;;;;;;21.56;54.60;102109.84;5065265;28;19921;-61
2023/08/10 10:49:51;;;;;;;;;;;;;;;21.56;54.64;102110.69;5066926;28;19924;-61
2023/08/10 10:52:34;;;;;;;;;;;;;;;21.58;54.38;102113.22;5065864;28;20433;-60
2023/08/10 10:55:00;;;;;;;;;;;;;;;21.57;54.56;102108.81;5066974;28;19912;-60
2023/08/10 10:57:26;;;;;;;;;;;;;;;21.57;54.76;102108.81;5066105;28;19917;-60
2023/08/10 10:59:51;;;;;;;;;;;;;;;21.57;54.64;102112.38;5065001;28;19988;-60
2023/08/10 11:02:16;;;;;;;;;;;;;;;21.58;54.43;102105.97;5066114;28;19952;-60
2023/08/10 11:04:41;;;;;;;;;;;;;;;21.59;54.87;102104.97;5066368;28;19916;-60
2023/08/10 11:07:07;;;;;;;;;;;;;;;21.60;54.70;102103.09;5066221;28;19939;-60
2023/08/10 11:09:32;;;;;;;;;;;;;;;21.60;54.90;102106.66;5066477;28;19920;-61
2023/08/10 11:11:58;;;;;;;;;;;;;;;21.61;54.53;102108.34;5064700;28;19913;-61
2023/08/10 11:14:26;;;;;;;;;;;;;;;21.62;54.85;102104.66;5066435;28;19920;-60
2023/08/10 11:16:52;;;;;;;;;;;;;;;21.63;54.76;102105.50;5065715;28;19972;-59
2023/08/10 11:19:18;;;;;;;;;;;;;;;21.63;54.63;102098.22;5066515;28;19912;-60
2023/08/10 11:21:44;;;;;;;;;;;;;;;21.64;54.61;102101.78;5065580;28;19927;-60
2023/08/10 11:24:09;;;;;;;;;;;;;;;21.65;54.76;102108.88;5065901;28;20759;-60
2023/08/10 11:26:35;;;;;;;;;;;;;;;21.66;54.87;102102.44;5065529;28;19952;-57
2023/08/10 11:29:00;;;;;;;;;;;;;;;21.67;54.76;102101.47;5065325;28;19913;-60
2023/08/10 11:31:26;;;;;;;;;;;;;;;21.67;54.72;102101.47;5065584;28;19921;-60
2023/08/10 11:33:51;;;;;;;;;;;;;;;21.68;55.01;102108.56;5098626;28;19916;-52
2023/08/10 11:36:16;;;;;;;;;;;;;;;21.68;54.74;102104.00;5067621;28;19935;-60
2023/08/10 11:38:43;;;;;;;;;;;;;;;21.69;55.02;102096.72;5065838;28;19955;-61
2023/08/10 11:41:08;;;;;;;;;;;;;;;21.70;55.03;102103.84;5065766;28;19920;-60
2023/08/10 11:43:33;;;;;;;;;;;;;;;21.68;54.71;102095.88;5065371;28;19917;-59
2023/08/10 11:45:58;;;;;;;;;;;;;;;21.71;54.98;102092.03;5065813;28;19916;-59
2023/08/10 11:48:26;;;;;;;;;;;;;;;21.72;54.90;102096.44;5065250;28;19913;-60
2023/08/10 11:50:58;;;;;;;;;;;;;;;21.73;54.99;102095.41;5063474;28;19921;-53
2023/08/10 11:53:25;;;;;;;;;;;;;;;21.75;55.08;102104.25;5063439;28;20343;-58
2023/08/10 11:55:50;;;;;;;;;;;;;;;21.77;55.27;102104.06;5065376;28;20407;-60
2023/08/10 11:58:17;;;;;;;;;;;;;;;21.77;55.01;102090.53;5064539;28;19912;-58
2023/08/10 12:00:42;;;;;;;;;;;;;;;21.79;55.10;102088.50;5063880;28;19964;-58
2023/08/10 12:03:07;;;;;;;;;;;;;;;21.80;55.06;102084.81;5068031;28;20435;-60
2023/08/10 12:05:46;;;;;;;;;;;;;;;21.80;54.96;102077.53;5096869;28;20333;-60
2023/08/10 12:08:15;;;;;;;;;;;;;;;21.82;54.77;102083.63;5081729;28;19971;-60
2023/08/10 12:10:45;;;;;;;;;;;;;;;21.84;54.96;102086.19;5094683;28;19921;-60
2023/08/10 12:13:14;;;;;;;;;;;;;;;21.84;54.94;102092.44;5064805;28;19952;-60
2023/08/10 12:15:49;;;;;;;;;;;;;;;21.86;55.12;102086.88;5065056;28;19935;-59
2023/08/10 12:18:15;;;;;;;;;;;;;;;21.86;54.84;102085.00;5064342;28;19916;-59
2023/08/10 12:20:41;;;;;;;;;;;;;;;21.88;54.94;102077.59;5064990;28;19947;-60
2023/08/10 12:23:07;;;;;;;;;;;;;;;21.88;55.22;102082.16;5062057;28;19916;-59
2023/08/10 12:25:32;;;;;;;;;;;;;;;21.89;54.91;102075.72;5064629;28;19989;-58
2023/08/10 12:27:57;;;;;;;;;;;;;;;21.89;55.33;102073.88;5064153;28;20413;-59
2023/08/10 12:30:24;;;;;;;;;;;;;;;21.90;55.22;102080.97;5060342;28;20300;-60